Lonetree, Wyoming
Current Conditions -  °F | °C
As of 12:15 AM on Friday 31 Oct 2014 (Local Time) from KFBR Reporting Station
Clear Clear  
Wind Chill:   Ceiling: Unl
Heat Index:   Visibility: NA
Dew Point: -3°   Wind: 5mph
Humidity: 55%   Direction: 340°NNW
Pressure: 30.27"   Gusts: NA
Location:  41.0297°N, 110.145°W
Report Text: KFBR 310615Z AUTO 34004KT CLR 05/M03 A3027 RMK AO2 T00531030 PWINO
Loading
Personal Weather Stations






























Interactive Weather Map
Tropical Storm Tracking
New forecast layout! Learn more

10-Day Weather Forecast

Advertisements
Track Severe Weather on mobile